This is the latest recevied weather packets stored in our database for station/object DL1GRJ-13. If no packets are shown the sender has not sent any weather packets the latest 10 day(s).
| Time | Temp. | Humidity | Pressure | Rain* | Wind** | Luminosity | Snow |
|---|---|---|---|---|---|---|---|
| 1777442430 | 7.22° C | 56% | 1020.1 hPa | - | - | - | - |
| 1777440630 | 7.22° C | 55% | 1020 hPa | - | - | - | - |
| 1777438830 | 7.22° C | 56% | 1020 hPa | - | - | - | - |
| 1777437029 | 7.22° C | 55% | 1019.7 hPa | - | - | - | - |
| 1777435229 | 7.78° C | 54% | 1019.6 hPa | - | - | - | - |
| 1777433429 | 7.78° C | 53% | 1019.5 hPa | - | - | - | - |
| 1777431629 | 7.78° C | 52% | 1019.3 hPa | - | - | - | - |
| 1777429829 | 7.78° C | 52% | 1019.4 hPa | - | - | - | - |
| 1777428029 | 8.33° C | 50% | 1019.3 hPa | - | - | - | - |
| 1777426229 | 8.33° C | 49% | 1019.1 hPa | - | - | - | - |
| 1777424428 | 8.89° C | 48% | 1019.1 hPa | - | - | - | - |
| 1777422628 | 8.89° C | 47% | 1019 hPa | - | - | - | - |
| 1777420828 | 8.89° C | 47% | 1019.2 hPa | - | - | - | - |
| 1777419028 | 9.44° C | 47% | 1019.3 hPa | - | - | - | - |
| 1777417228 | 10° C | 43% | 1019.4 hPa | - | - | - | - |
| 1777415428 | 10.56° C | 43% | 1019.4 hPa | - | - | - | - |
| 1777413628 | 11.11° C | 41% | 1019.2 hPa | - | - | - | - |
| 1777411828 | 11.11° C | 41% | 1019.2 hPa | - | - | - | - |
| 1777410027 | 11.67° C | 40% | 1019.1 hPa | - | - | - | - |
| 1777408227 | 11.67° C | 41% | 1019.1 hPa | - | - | - | - |
| 1777406427 | 12.22° C | 42% | 1019 hPa | - | - | - | - |
| 1777404627 | 12.22° C | 43% | 1018.8 hPa | - | - | - | - |
| 1777402827 | 13.33° C | 40% | 1018.4 hPa | - | - | - | - |
| 1777401027 | 13.89° C | 38% | 1018.3 hPa | - | - | - | - |
| 1777399227 | 15° C | 34% | 1018.2 hPa | - | - | - | - |
* Rain since midnight (hover to see other rain measurements)
** Current wind speed in m/s (hover to see current wind gust speed)